sensor_id;sensor_type;location;lat;lon;timestamp;pressure;altitude;pressure_sealevel;temperature;humidity
20628;BME280;10473;42.734;24.258;2023-03-13T00:01:26;91979.50;;;0.50;60.81
20628;BME280;10473;42.734;24.258;2023-03-13T00:03:54;91991.00;;;0.49;60.91
20628;BME280;10473;42.734;24.258;2023-03-13T00:06:23;91991.47;;;0.51;61.04
20628;BME280;10473;42.734;24.258;2023-03-13T00:08:53;91992.41;;;0.55;60.79
20628;BME280;10473;42.734;24.258;2023-03-13T00:11:21;91990.09;;;0.54;61.58
20628;BME280;10473;42.734;24.258;2023-03-13T00:13:53;91990.06;;;0.45;61.01
20628;BME280;10473;42.734;24.258;2023-03-13T00:16:21;91994.41;;;0.50;61.65
20628;BME280;10473;42.734;24.258;2023-03-13T00:18:51;91996.69;;;0.51;61.70
20628;BME280;10473;42.734;24.258;2023-03-13T00:21:20;91992.88;;;0.57;61.26
20628;BME280;10473;42.734;24.258;2023-03-13T00:23:49;91993.03;;;0.52;61.04
20628;BME280;10473;42.734;24.258;2023-03-13T00:26:18;91983.50;;;0.56;60.53
20628;BME280;10473;42.734;24.258;2023-03-13T00:28:47;91985.34;;;0.47;60.86
20628;BME280;10473;42.734;24.258;2023-03-13T00:31:19;91998.03;;;0.49;60.81
20628;BME280;10473;42.734;24.258;2023-03-13T00:33:51;91994.81;;;0.43;61.40
20628;BME280;10473;42.734;24.258;2023-03-13T00:36:20;91979.88;;;0.27;61.73
20628;BME280;10473;42.734;24.258;2023-03-13T00:38:49;91981.56;;;0.31;61.42
20628;BME280;10473;42.734;24.258;2023-03-13T00:41:18;91990.34;;;0.35;61.58
20628;BME280;10473;42.734;24.258;2023-03-13T00:43:47;91985.00;;;0.40;62.01
20628;BME280;10473;42.734;24.258;2023-03-13T00:46:18;91978.06;;;0.28;62.30
20628;BME280;10473;42.734;24.258;2023-03-13T00:48:47;91976.50;;;0.26;62.90
20628;BME280;10473;42.734;24.258;2023-03-13T00:51:16;91978.47;;;0.13;63.21
20628;BME280;10473;42.734;24.258;2023-03-13T00:53:45;91973.25;;;0.13;63.07
20628;BME280;10473;42.734;24.258;2023-03-13T00:56:15;91966.66;;;0.15;62.57
20628;BME280;10473;42.734;24.258;2023-03-13T00:58:45;91966.81;;;0.10;62.06
20628;BME280;10473;42.734;24.258;2023-03-13T01:01:15;91978.94;;;0.23;62.41
20628;BME280;10473;42.734;24.258;2023-03-13T01:03:46;91982.59;;;0.13;62.23
20628;BME280;10473;42.734;24.258;2023-03-13T01:06:16;91985.34;;;0.17;62.34
20628;BME280;10473;42.734;24.258;2023-03-13T01:08:44;91989.19;;;0.19;62.11
20628;BME280;10473;42.734;24.258;2023-03-13T01:11:13;91988.69;;;0.09;62.45
20628;BME280;10473;42.734;24.258;2023-03-13T01:13:41;91980.00;;;-0.09;63.00
20628;BME280;10473;42.734;24.258;2023-03-13T01:16:12;91990.81;;;0.07;62.40
20628;BME280;10473;42.734;24.258;2023-03-13T01:18:42;91997.72;;;0.11;63.13
20628;BME280;10473;42.734;24.258;2023-03-13T01:21:13;91996.50;;;0.09;62.94
20628;BME280;10473;42.734;24.258;2023-03-13T01:23:41;92000.97;;;-0.14;64.03
20628;BME280;10473;42.734;24.258;2023-03-13T01:26:09;92000.53;;;-0.07;63.58
20628;BME280;10473;42.734;24.258;2023-03-13T01:28:37;91996.13;;;-0.07;63.97
20628;BME280;10473;42.734;24.258;2023-03-13T01:31:12;92009.19;;;0.02;64.02
20628;BME280;10473;42.734;24.258;2023-03-13T01:33:40;91996.28;;;-0.03;63.41
20628;BME280;10473;42.734;24.258;2023-03-13T01:36:08;92003.97;;;0.02;63.28
20628;BME280;10473;42.734;24.258;2023-03-13T01:38:38;92005.16;;;-0.04;63.31
20628;BME280;10473;42.734;24.258;2023-03-13T01:41:06;92012.38;;;-0.01;63.51
20628;BME280;10473;42.734;24.258;2023-03-13T01:43:35;92002.38;;;-0.08;62.72
20628;BME280;10473;42.734;24.258;2023-03-13T01:46:13;92007.13;;;-0.10;63.16
20628;BME280;10473;42.734;24.258;2023-03-13T01:49:02;92011.38;;;-0.14;63.62
20628;BME280;10473;42.734;24.258;2023-03-13T01:51:37;92014.22;;;-0.02;63.58
20628;BME280;10473;42.734;24.258;2023-03-13T01:54:10;92011.13;;;-0.04;63.93
20628;BME280;10473;42.734;24.258;2023-03-13T01:56:41;92013.84;;;-0.09;64.01
20628;BME280;10473;42.734;24.258;2023-03-13T01:59:11;92012.41;;;-0.23;64.48
20628;BME280;10473;42.734;24.258;2023-03-13T02:01:43;91988.31;;;-0.29;63.85
20628;BME280;10473;42.734;24.258;2023-03-13T02:04:13;92014.94;;;-0.10;63.91
20628;BME280;10473;42.734;24.258;2023-03-13T02:06:44;92008.72;;;-0.22;64.32
20628;BME280;10473;42.734;24.258;2023-03-13T02:09:19;92028.19;;;-0.20;63.77
20628;BME280;10473;42.734;24.258;2023-03-13T02:11:52;92034.91;;;-0.19;64.54
20628;BME280;10473;42.734;24.258;2023-03-13T02:14:26;92026.34;;;-0.19;63.69
20628;BME280;10473;42.734;24.258;2023-03-13T02:16:54;92023.94;;;-0.16;63.70
20628;BME280;10473;42.734;24.258;2023-03-13T02:19:27;92024.63;;;-0.24;63.91
20628;BME280;10473;42.734;24.258;2023-03-13T02:22:00;92025.09;;;-0.44;64.34
20628;BME280;10473;42.734;24.258;2023-03-13T02:24:34;92033.41;;;-0.42;64.17
20628;BME280;10473;42.734;24.258;2023-03-13T02:27:06;92042.56;;;-0.44;64.70
20628;BME280;10473;42.734;24.258;2023-03-13T02:29:37;92039.84;;;-0.39;63.99
20628;BME280;10473;42.734;24.258;2023-03-13T02:32:06;92028.16;;;-0.64;65.74
20628;BME280;10473;42.734;24.258;2023-03-13T02:34:37;92034.50;;;-0.56;65.89
20628;BME280;10473;42.734;24.258;2023-03-13T02:37:07;92038.44;;;-0.59;65.64
20628;BME280;10473;42.734;24.258;2023-03-13T02:39:41;92041.91;;;-0.50;66.32
20628;BME280;10473;42.734;24.258;2023-03-13T02:42:14;92041.31;;;-0.47;65.81
20628;BME280;10473;42.734;24.258;2023-03-13T02:44:45;92043.91;;;-0.47;65.96
20628;BME280;10473;42.734;24.258;2023-03-13T02:47:17;92052.41;;;-0.55;65.26
20628;BME280;10473;42.734;24.258;2023-03-13T02:49:45;92053.94;;;-0.54;64.96
20628;BME280;10473;42.734;24.258;2023-03-13T02:52:16;92048.44;;;-0.88;67.39
20628;BME280;10473;42.734;24.258;2023-03-13T02:54:47;92049.66;;;-0.72;66.45
20628;BME280;10473;42.734;24.258;2023-03-13T02:57:18;92057.66;;;-0.82;67.32
20628;BME280;10473;42.734;24.258;2023-03-13T02:59:45;92062.47;;;-0.75;66.47
20628;BME280;10473;42.734;24.258;2023-03-13T03:02:13;92061.13;;;-0.73;66.10
20628;BME280;10473;42.734;24.258;2023-03-13T03:04:41;92067.31;;;-0.82;66.31
20628;BME280;10473;42.734;24.258;2023-03-13T03:07:10;92070.56;;;-0.77;65.90
20628;BME280;10473;42.734;24.258;2023-03-13T03:09:38;92071.53;;;-0.73;65.75
20628;BME280;10473;42.734;24.258;2023-03-13T03:12:10;92071.13;;;-0.66;65.42
20628;BME280;10473;42.734;24.258;2023-03-13T03:14:40;92073.75;;;-0.80;66.35
20628;BME280;10473;42.734;24.258;2023-03-13T03:17:07;92076.25;;;-0.75;66.69
20628;BME280;10473;42.734;24.258;2023-03-13T03:19:35;92082.19;;;-0.61;65.07
20628;BME280;10473;42.734;24.258;2023-03-13T03:22:03;92085.66;;;-0.65;66.00
20628;BME280;10473;42.734;24.258;2023-03-13T03:24:32;92099.44;;;-0.65;65.48
20628;BME280;10473;42.734;24.258;2023-03-13T03:26:59;92095.50;;;-0.62;66.46
20628;BME280;10473;42.734;24.258;2023-03-13T03:29:35;92091.56;;;-0.87;66.55
20628;BME280;10473;42.734;24.258;2023-03-13T03:32:05;92093.56;;;-0.70;65.90
20628;BME280;10473;42.734;24.258;2023-03-13T03:34:33;92095.88;;;-0.69;66.15
20628;BME280;10473;42.734;24.258;2023-03-13T03:37:01;92101.94;;;-0.60;65.20
20628;BME280;10473;42.734;24.258;2023-03-13T03:39:29;92095.09;;;-0.69;66.87
20628;BME280;10473;42.734;24.258;2023-03-13T03:41:57;92100.69;;;-0.62;65.62
20628;BME280;10473;42.734;24.258;2023-03-13T03:44:26;92113.69;;;-0.62;65.42
20628;BME280;10473;42.734;24.258;2023-03-13T03:46:56;92110.22;;;-0.58;64.78
20628;BME280;10473;42.734;24.258;2023-03-13T03:49:27;92111.97;;;-0.67;65.03
20628;BME280;10473;42.734;24.258;2023-03-13T03:51:55;92119.88;;;-0.58;64.84
20628;BME280;10473;42.734;24.258;2023-03-13T03:54:28;92116.41;;;-0.67;65.67
20628;BME280;10473;42.734;24.258;2023-03-13T03:56:57;92109.56;;;-0.77;65.64
20628;BME280;10473;42.734;24.258;2023-03-13T03:59:24;92122.09;;;-0.79;66.28
20628;BME280;10473;42.734;24.258;2023-03-13T04:01:57;92122.00;;;-0.74;66.87
20628;BME280;10473;42.734;24.258;2023-03-13T04:04:28;92126.34;;;-0.83;66.06
20628;BME280;10473;42.734;24.258;2023-03-13T04:07:01;92133.47;;;-0.88;67.03
20628;BME280;10473;42.734;24.258;2023-03-13T04:09:31;92141.47;;;-0.85;66.45
20628;BME280;10473;42.734;24.258;2023-03-13T04:12:00;92127.78;;;-1.04;66.74
20628;BME280;10473;42.734;24.258;2023-03-13T04:14:30;92133.88;;;-0.95;66.05
20628;BME280;10473;42.734;24.258;2023-03-13T04:17:00;92148.59;;;-1.04;66.36
20628;BME280;10473;42.734;24.258;2023-03-13T04:19:29;92153.22;;;-1.01;66.34
20628;BME280;10473;42.734;24.258;2023-03-13T04:21:57;92150.03;;;-0.98;66.57
20628;BME280;10473;42.734;24.258;2023-03-13T04:24:26;92146.88;;;-0.95;65.50
20628;BME280;10473;42.734;24.258;2023-03-13T04:26:56;92166.88;;;-1.09;67.62
20628;BME280;10473;42.734;24.258;2023-03-13T04:29:24;92165.34;;;-0.96;67.12
20628;BME280;10473;42.734;24.258;2023-03-13T04:31:59;92166.50;;;-1.02;66.33
20628;BME280;10473;42.734;24.258;2023-03-13T04:34:36;92163.03;;;-0.98;67.08
20628;BME280;10473;42.734;24.258;2023-03-13T04:37:03;92157.63;;;-1.15;66.81
20628;BME280;10473;42.734;24.258;2023-03-13T04:39:38;92170.91;;;-1.03;67.32
20628;BME280;10473;42.734;24.258;2023-03-13T04:42:36;92179.31;;;-1.06;66.74
20628;BME280;10473;42.734;24.258;2023-03-13T04:45:09;92178.91;;;-0.99;67.03
20628;BME280;10473;42.734;24.258;2023-03-13T04:47:45;92181.13;;;-0.93;67.38
20628;BME280;10473;42.734;24.258;2023-03-13T04:50:52;92194.41;;;-0.94;67.22
20628;BME280;10473;42.734;24.258;2023-03-13T04:53:26;92195.09;;;-0.89;66.86
20628;BME280;10473;42.734;24.258;2023-03-13T04:56:35;92198.75;;;-0.90;66.55
20628;BME280;10473;42.734;24.258;2023-03-13T04:59:22;92201.84;;;-0.88;66.95
20628;BME280;10473;42.734;24.258;2023-03-13T05:01:58;92190.78;;;-0.93;66.74
20628;BME280;10473;42.734;24.258;2023-03-13T05:04:39;92202.16;;;-0.76;67.33
20628;BME280;10473;42.734;24.258;2023-03-13T05:07:17;92212.16;;;-0.69;66.99
20628;BME280;10473;42.734;24.258;2023-03-13T05:10:03;92209.28;;;-0.54;67.91
20628;BME280;10473;42.734;24.258;2023-03-13T05:12:50;92199.44;;;-0.44;66.88
20628;BME280;10473;42.734;24.258;2023-03-13T05:15:46;92217.41;;;-0.07;66.99
20628;BME280;10473;42.734;24.258;2023-03-13T05:18:33;92217.72;;;0.28;66.07
20628;BME280;10473;42.734;24.258;2023-03-13T05:21:27;92227.78;;;0.64;65.87
20628;BME280;10473;42.734;24.258;2023-03-13T05:24:15;92230.78;;;1.02;64.63
20628;BME280;10473;42.734;24.258;2023-03-13T05:27:14;92221.63;;;1.43;63.61
20628;BME280;10473;42.734;24.258;2023-03-13T05:30:06;92225.31;;;1.82;61.25
20628;BME280;10473;42.734;24.258;2023-03-13T05:32:45;92215.22;;;2.14;61.08
20628;BME280;10473;42.734;24.258;2023-03-13T05:35:33;92228.78;;;2.42;61.65
20628;BME280;10473;42.734;24.258;2023-03-13T05:38:19;92233.69;;;2.86;59.84
20628;BME280;10473;42.734;24.258;2023-03-13T05:41:05;92231.03;;;3.20;58.47
20628;BME280;10473;42.734;24.258;2023-03-13T05:43:56;92231.50;;;3.59;57.01
20628;BME280;10473;42.734;24.258;2023-03-13T05:46:53;92239.66;;;4.04;55.54
20628;BME280;10473;42.734;24.258;2023-03-13T05:49:59;92242.13;;;4.29;54.03
20628;BME280;10473;42.734;24.258;2023-03-13T05:52:59;92242.22;;;4.62;53.66
20628;BME280;10473;42.734;24.258;2023-03-13T05:55:33;92229.22;;;4.45;52.74
20628;BME280;10473;42.734;24.258;2023-03-13T05:58:40;92259.03;;;4.81;53.20
20628;BME280;10473;42.734;24.258;2023-03-13T06:01:15;92260.28;;;5.16;52.15
20628;BME280;10473;42.734;24.258;2023-03-13T06:04:01;92260.97;;;5.13;50.99
20628;BME280;10473;42.734;24.258;2023-03-13T06:06:31;92259.53;;;5.48;50.60
20628;BME280;10473;42.734;24.258;2023-03-13T06:08:59;92256.38;;;5.55;51.35
20628;BME280;10473;42.734;24.258;2023-03-13T06:11:30;92268.66;;;5.63;49.86
20628;BME280;10473;42.734;24.258;2023-03-13T06:14:00;92267.41;;;5.93;49.77
20628;BME280;10473;42.734;24.258;2023-03-13T06:16:42;92261.19;;;5.97;49.54
20628;BME280;10473;42.734;24.258;2023-03-13T06:19:17;92277.53;;;6.27;48.74
20628;BME280;10473;42.734;24.258;2023-03-13T06:21:45;92279.63;;;6.45;48.92
20628;BME280;10473;42.734;24.258;2023-03-13T06:24:13;92282.13;;;6.54;48.45
20628;BME280;10473;42.734;24.258;2023-03-13T06:26:40;92278.16;;;6.72;46.64
20628;BME280;10473;42.734;24.258;2023-03-13T06:29:09;92268.59;;;6.79;47.10
20628;BME280;10473;42.734;24.258;2023-03-13T06:31:37;92285.34;;;6.87;46.59
20628;BME280;10473;42.734;24.258;2023-03-13T06:34:05;92274.38;;;6.97;47.46
20628;BME280;10473;42.734;24.258;2023-03-13T06:36:33;92292.78;;;7.09;46.31
20628;BME280;10473;42.734;24.258;2023-03-13T06:39:01;92291.84;;;7.29;46.86
20628;BME280;10473;42.734;24.258;2023-03-13T06:41:29;92292.91;;;7.40;45.52
20628;BME280;10473;42.734;24.258;2023-03-13T06:43:58;92286.34;;;7.34;46.53
20628;BME280;10473;42.734;24.258;2023-03-13T06:46:27;92288.38;;;7.68;45.31
20628;BME280;10473;42.734;24.258;2023-03-13T06:48:56;92287.56;;;7.95;44.83
20628;BME280;10473;42.734;24.258;2023-03-13T06:51:24;92280.00;;;8.09;44.88
20628;BME280;10473;42.734;24.258;2023-03-13T06:53:51;92285.19;;;7.90;44.73
20628;BME280;10473;42.734;24.258;2023-03-13T06:56:19;92284.28;;;7.98;45.59
20628;BME280;10473;42.734;24.258;2023-03-13T06:58:47;92285.91;;;8.18;46.14
20628;BME280;10473;42.734;24.258;2023-03-13T07:01:16;92283.03;;;8.23;43.52
20628;BME280;10473;42.734;24.258;2023-03-13T07:03:46;92281.84;;;8.36;44.46
20628;BME280;10473;42.734;24.258;2023-03-13T07:06:14;92282.69;;;8.24;43.78
20628;BME280;10473;42.734;24.258;2023-03-13T07:08:42;92274.78;;;8.24;43.16
20628;BME280;10473;42.734;24.258;2023-03-13T07:11:14;92272.63;;;8.30;41.54
20628;BME280;10473;42.734;24.258;2023-03-13T07:13:42;92278.63;;;8.27;42.86
20628;BME280;10473;42.734;24.258;2023-03-13T07:16:11;92275.84;;;8.70;42.89
20628;BME280;10473;42.734;24.258;2023-03-13T07:18:39;92275.81;;;8.85;42.60
20628;BME280;10473;42.734;24.258;2023-03-13T07:21:11;92262.50;;;9.16;41.60
20628;BME280;10473;42.734;24.258;2023-03-13T07:23:39;92257.16;;;9.32;42.06
20628;BME280;10473;42.734;24.258;2023-03-13T07:26:10;92256.56;;;9.61;41.24
20628;BME280;10473;42.734;24.258;2023-03-13T07:28:38;92254.03;;;9.87;40.92
20628;BME280;10473;42.734;24.258;2023-03-13T07:31:09;92244.06;;;10.22;40.73
20628;BME280;10473;42.734;24.258;2023-03-13T07:33:37;92263.72;;;10.43;41.35
20628;BME280;10473;42.734;24.258;2023-03-13T07:36:05;92266.91;;;10.78;39.77
20628;BME280;10473;42.734;24.258;2023-03-13T07:38:35;92267.69;;;10.79;38.19
20628;BME280;10473;42.734;24.258;2023-03-13T07:41:03;92256.50;;;10.92;38.60
20628;BME280;10473;42.734;24.258;2023-03-13T07:43:31;92262.81;;;11.40;36.70
20628;BME280;10473;42.734;24.258;2023-03-13T07:46:00;92258.53;;;11.91;36.65
20628;BME280;10473;42.734;24.258;2023-03-13T07:48:29;92259.53;;;12.16;35.70
20628;BME280;10473;42.734;24.258;2023-03-13T07:50:58;92260.41;;;12.30;35.86
20628;BME280;10473;42.734;24.258;2023-03-13T07:53:26;92267.47;;;12.56;34.96
20628;BME280;10473;42.734;24.258;2023-03-13T07:55:57;92263.81;;;13.28;33.78
20628;BME280;10473;42.734;24.258;2023-03-13T07:58:26;92265.56;;;13.75;31.86
20628;BME280;10473;42.734;24.258;2023-03-13T08:00:54;92273.28;;;14.08;31.55
20628;BME280;10473;42.734;24.258;2023-03-13T08:03:22;92271.50;;;14.75;31.68
20628;BME280;10473;42.734;24.258;2023-03-13T08:05:57;92272.25;;;14.79;31.89
20628;BME280;10473;42.734;24.258;2023-03-13T08:08:25;92272.19;;;14.30;29.68
20628;BME280;10473;42.734;24.258;2023-03-13T08:10:52;92280.66;;;14.63;28.33
20628;BME280;10473;42.734;24.258;2023-03-13T08:13:22;92279.88;;;15.12;30.41
20628;BME280;10473;42.734;24.258;2023-03-13T08:15:49;92270.59;;;15.76;28.42
20628;BME280;10473;42.734;24.258;2023-03-13T08:18:17;92281.38;;;15.16;27.51
20628;BME280;10473;42.734;24.258;2023-03-13T08:20:44;92274.13;;;15.31;28.30
20628;BME280;10473;42.734;24.258;2023-03-13T08:23:12;92262.84;;;16.02;27.39
20628;BME280;10473;42.734;24.258;2023-03-13T08:25:40;92268.16;;;16.06;26.80
20628;BME280;10473;42.734;24.258;2023-03-13T08:28:07;92271.00;;;16.50;26.71
20628;BME280;10473;42.734;24.258;2023-03-13T08:30:37;92257.63;;;17.01;26.72
20628;BME280;10473;42.734;24.258;2023-03-13T08:33:07;92257.78;;;17.68;25.97
20628;BME280;10473;42.734;24.258;2023-03-13T08:35:34;92259.31;;;16.19;25.81
20628;BME280;10473;42.734;24.258;2023-03-13T08:38:02;92256.78;;;15.88;26.30
20628;BME280;10473;42.734;24.258;2023-03-13T08:40:29;92247.19;;;16.66;26.44
20628;BME280;10473;42.734;24.258;2023-03-13T08:42:57;92242.41;;;16.94;26.83
20628;BME280;10473;42.734;24.258;2023-03-13T08:45:25;92246.28;;;17.30;27.20
20628;BME280;10473;42.734;24.258;2023-03-13T08:47:54;92242.25;;;17.86;26.68
20628;BME280;10473;42.734;24.258;2023-03-13T08:50:21;92232.47;;;17.69;26.16
20628;BME280;10473;42.734;24.258;2023-03-13T08:52:49;92231.56;;;16.61;26.31
20628;BME280;10473;42.734;24.258;2023-03-13T08:55:17;92239.31;;;16.96;27.32
20628;BME280;10473;42.734;24.258;2023-03-13T08:57:44;92238.41;;;17.53;25.55
20628;BME280;10473;42.734;24.258;2023-03-13T09:00:13;92245.78;;;17.46;25.21
20628;BME280;10473;42.734;24.258;2023-03-13T09:02:41;92242.25;;;17.12;25.81
20628;BME280;10473;42.734;24.258;2023-03-13T09:05:10;92244.03;;;17.66;25.75
20628;BME280;10473;42.734;24.258;2023-03-13T09:07:38;92236.66;;;16.92;26.40
20628;BME280;10473;42.734;24.258;2023-03-13T09:10:07;92244.53;;;17.10;26.23
20628;BME280;10473;42.734;24.258;2023-03-13T09:12:37;92244.91;;;16.68;26.11
20628;BME280;10473;42.734;24.258;2023-03-13T09:15:07;92244.63;;;17.03;26.80
20628;BME280;10473;42.734;24.258;2023-03-13T09:17:35;92246.34;;;17.94;26.19
20628;BME280;10473;42.734;24.258;2023-03-13T09:20:03;92247.69;;;18.69;24.59
20628;BME280;10473;42.734;24.258;2023-03-13T09:22:32;92231.66;;;18.05;25.09
20628;BME280;10473;42.734;24.258;2023-03-13T09:25:00;92238.13;;;19.14;24.39
20628;BME280;10473;42.734;24.258;2023-03-13T09:27:28;92237.41;;;19.56;23.38
20628;BME280;10473;42.734;24.258;2023-03-13T09:29:56;92229.09;;;19.50;22.74
20628;BME280;10473;42.734;24.258;2023-03-13T09:32:24;92240.81;;;19.37;22.99
20628;BME280;10473;42.734;24.258;2023-03-13T09:34:51;92234.50;;;19.47;22.83
20628;BME280;10473;42.734;24.258;2023-03-13T09:37:19;92243.47;;;18.68;24.01
20628;BME280;10473;42.734;24.258;2023-03-13T09:39:48;92248.69;;;18.78;23.37
20628;BME280;10473;42.734;24.258;2023-03-13T09:42:17;92240.00;;;19.17;24.56
20628;BME280;10473;42.734;24.258;2023-03-13T09:44:49;92251.56;;;19.37;23.99
20628;BME280;10473;42.734;24.258;2023-03-13T09:47:22;92249.03;;;19.30;24.09
20628;BME280;10473;42.734;24.258;2023-03-13T09:49:53;92228.28;;;20.12;23.44
20628;BME280;10473;42.734;24.258;2023-03-13T09:52:24;92231.25;;;19.98;23.82
20628;BME280;10473;42.734;24.258;2023-03-13T09:54:57;92236.91;;;20.23;22.60
20628;BME280;10473;42.734;24.258;2023-03-13T09:57:31;92234.53;;;20.05;23.04
20628;BME280;10473;42.734;24.258;2023-03-13T10:00:02;92233.09;;;20.01;23.37
20628;BME280;10473;42.734;24.258;2023-03-13T10:02:34;92234.03;;;19.06;23.23
20628;BME280;10473;42.734;24.258;2023-03-13T10:05:13;92237.31;;;19.82;23.35
20628;BME280;10473;42.734;24.258;2023-03-13T10:07:41;92233.22;;;19.94;23.14
20628;BME280;10473;42.734;24.258;2023-03-13T10:10:15;92228.63;;;18.86;24.10
20628;BME280;10473;42.734;24.258;2023-03-13T10:12:45;92219.19;;;17.92;24.71
20628;BME280;10473;42.734;24.258;2023-03-13T10:15:25;92222.13;;;17.34;25.74
20628;BME280;10473;42.734;24.258;2023-03-13T10:17:54;92204.50;;;16.99;26.01
20628;BME280;10473;42.734;24.258;2023-03-13T10:20:23;92213.91;;;17.14;26.32
20628;BME280;10473;42.734;24.258;2023-03-13T10:22:55;92209.34;;;17.11;25.90
20628;BME280;10473;42.734;24.258;2023-03-13T10:25:29;92208.88;;;16.76;26.44
20628;BME280;10473;42.734;24.258;2023-03-13T10:27:58;92207.69;;;17.24;27.45
20628;BME280;10473;42.734;24.258;2023-03-13T10:30:28;92211.38;;;17.41;26.88
20628;BME280;10473;42.734;24.258;2023-03-13T10:32:58;92208.78;;;16.90;27.58
20628;BME280;10473;42.734;24.258;2023-03-13T10:35:32;92205.56;;;17.05;27.62
20628;BME280;10473;42.734;24.258;2023-03-13T10:38:03;92199.41;;;17.12;26.85
20628;BME280;10473;42.734;24.258;2023-03-13T10:40:33;92194.22;;;17.68;27.00
20628;BME280;10473;42.734;24.258;2023-03-13T10:43:03;92193.22;;;17.55;26.47
20628;BME280;10473;42.734;24.258;2023-03-13T10:45:33;92194.94;;;16.51;27.53
20628;BME280;10473;42.734;24.258;2023-03-13T10:48:09;92186.38;;;16.70;27.67
20628;BME280;10473;42.734;24.258;2023-03-13T10:50:42;92191.72;;;15.33;27.76
20628;BME280;10473;42.734;24.258;2023-03-13T10:53:22;92185.03;;;15.83;28.64
20628;BME280;10473;42.734;24.258;2023-03-13T10:55:53;92184.56;;;16.05;28.25
20628;BME280;10473;42.734;24.258;2023-03-13T10:58:24;92181.03;;;15.43;29.35
20628;BME280;10473;42.734;24.258;2023-03-13T11:01:09;92172.88;;;15.75;29.81
20628;BME280;10473;42.734;24.258;2023-03-13T11:03:43;92169.69;;;16.01;29.48
20628;BME280;10473;42.734;24.258;2023-03-13T11:06:28;92165.50;;;15.07;29.34
20628;BME280;10473;42.734;24.258;2023-03-13T11:09:10;92166.28;;;14.97;30.27
20628;BME280;10473;42.734;24.258;2023-03-13T11:11:48;92167.50;;;14.29;30.84
20628;BME280;10473;42.734;24.258;2023-03-13T11:14:17;92166.69;;;14.15;30.52
20628;BME280;10473;42.734;24.258;2023-03-13T11:16:47;92162.09;;;13.84;30.46
20628;BME280;10473;42.734;24.258;2023-03-13T11:19:25;92150.59;;;13.45;31.09
20628;BME280;10473;42.734;24.258;2023-03-13T11:22:05;92148.00;;;13.80;33.23
20628;BME280;10473;42.734;24.258;2023-03-13T11:24:40;92138.88;;;13.67;31.87
20628;BME280;10473;42.734;24.258;2023-03-13T11:27:16;92134.19;;;13.36;31.17
20628;BME280;10473;42.734;24.258;2023-03-13T11:29:56;92129.53;;;13.05;32.18
20628;BME280;10473;42.734;24.258;2023-03-13T11:32:30;92129.53;;;13.05;33.65
20628;BME280;10473;42.734;24.258;2023-03-13T11:35:03;92124.59;;;13.07;33.28
20628;BME280;10473;42.734;24.258;2023-03-13T11:37:32;92129.53;;;12.98;33.97
20628;BME280;10473;42.734;24.258;2023-03-13T11:40:10;92122.69;;;13.04;33.90
20628;BME280;10473;42.734;24.258;2023-03-13T11:42:54;92120.31;;;12.85;33.24
20628;BME280;10473;42.734;24.258;2023-03-13T11:46:06;92115.78;;;12.89;32.37
20628;BME280;10473;42.734;24.258;2023-03-13T11:48:58;92115.72;;;12.82;34.90
20628;BME280;10473;42.734;24.258;2023-03-13T11:51:52;92114.31;;;12.98;33.11
20628;BME280;10473;42.734;24.258;2023-03-13T11:54:36;92113.56;;;12.98;32.72
20628;BME280;10473;42.734;24.258;2023-03-13T11:57:12;92103.16;;;12.75;33.78
20628;BME280;10473;42.734;24.258;2023-03-13T11:59:50;92094.50;;;12.92;33.16
20628;BME280;10473;42.734;24.258;2023-03-13T12:02:25;92098.41;;;13.09;33.59
20628;BME280;10473;42.734;24.258;2023-03-13T12:04:57;92090.06;;;13.21;33.00
20628;BME280;10473;42.734;24.258;2023-03-13T12:07:29;92087.81;;;13.30;32.35
20628;BME280;10473;42.734;24.258;2023-03-13T12:10:02;92079.78;;;13.16;31.31
20628;BME280;10473;42.734;24.258;2023-03-13T12:12:38;92097.69;;;13.26;32.45
20628;BME280;10473;42.734;24.258;2023-03-13T12:15:24;92093.16;;;13.51;32.95
20628;BME280;10473;42.734;24.258;2023-03-13T12:18:08;92081.75;;;13.36;32.70
20628;BME280;10473;42.734;24.258;2023-03-13T12:20:43;92075.66;;;13.29;33.37
20628;BME280;10473;42.734;24.258;2023-03-13T12:23:22;92081.56;;;12.84;32.79
20628;BME280;10473;42.734;24.258;2023-03-13T12:25:54;92070.84;;;12.70;32.49
20628;BME280;10473;42.734;24.258;2023-03-13T12:28:34;92073.91;;;12.75;34.66
20628;BME280;10473;42.734;24.258;2023-03-13T12:31:12;92081.50;;;12.73;32.81
20628;BME280;10473;42.734;24.258;2023-03-13T12:33:47;92083.81;;;12.78;34.25
20628;BME280;10473;42.734;24.258;2023-03-13T12:36:23;92075.13;;;12.92;32.83
20628;BME280;10473;42.734;24.258;2023-03-13T12:38:55;92083.94;;;13.10;32.61
20628;BME280;10473;42.734;24.258;2023-03-13T12:41:27;92083.19;;;13.06;32.15
20628;BME280;10473;42.734;24.258;2023-03-13T12:43:57;92072.53;;;12.99;31.85
20628;BME280;10473;42.734;24.258;2023-03-13T12:46:34;92085.16;;;13.30;32.80
20628;BME280;10473;42.734;24.258;2023-03-13T12:55:01;92079.09;;;13.43;32.56
20628;BME280;10473;42.734;24.258;2023-03-13T12:58:07;92069.97;;;13.41;32.42
20628;BME280;10473;42.734;24.258;2023-03-13T13:00:38;92067.97;;;13.03;32.81
20628;BME280;10473;42.734;24.258;2023-03-13T13:03:19;92071.22;;;12.72;33.47
20628;BME280;10473;42.734;24.258;2023-03-13T13:05:59;92073.09;;;12.68;32.63
20628;BME280;10473;42.734;24.258;2023-03-13T13:08:33;92070.84;;;12.70;33.77
20628;BME280;10473;42.734;24.258;2023-03-13T13:17:48;92066.47;;;13.19;34.34
20628;BME280;10473;42.734;24.258;2023-03-13T13:20:40;92068.81;;;13.28;32.81
20628;BME280;10473;42.734;24.258;2023-03-13T13:23:21;92062.59;;;12.96;33.36
20628;BME280;10473;42.734;24.258;2023-03-13T13:25:50;92056.94;;;12.97;32.32
20628;BME280;10473;42.734;24.258;2023-03-13T13:28:25;92054.28;;;13.04;33.62
20628;BME280;10473;42.734;24.258;2023-03-13T13:30:55;92040.63;;;13.02;33.75
20628;BME280;10473;42.734;24.258;2023-03-13T13:33:47;92062.72;;;13.27;32.46
20628;BME280;10473;42.734;24.258;2023-03-13T13:36:40;92056.63;;;13.23;32.89